createdAt,value
2022-12-31T00:00:48.099Z,44.10
2022-12-31T00:05:49.644Z,16.35
2022-12-31T00:10:51.191Z,14.80
2022-12-31T00:15:52.707Z,13.27
2022-12-31T00:20:54.183Z,12.85
2022-12-31T00:25:55.670Z,16.15
2022-12-31T00:30:57.250Z,13.20
2022-12-31T00:36:14.310Z,16.33
2022-12-31T00:41:17.048Z,13.37
2022-12-31T00:46:19.167Z,10.52
2022-12-31T00:51:23.482Z,12.80
2022-12-31T00:56:27.842Z,11.55
2022-12-31T01:01:31.887Z,15.27
2022-12-31T01:06:33.622Z,19.15
2022-12-31T01:11:36.917Z,13.15
2022-12-31T01:16:44.422Z,7.65
2022-12-31T01:21:47.197Z,12.60
2022-12-31T01:26:48.815Z,12.90
2022-12-31T01:31:50.347Z,18.40
2022-12-31T01:36:51.897Z,14.52
2022-12-31T01:41:53.397Z,12.20
2022-12-31T01:47:06.122Z,11.57
2022-12-31T01:52:22.847Z,12.05
2022-12-31T01:57:26.044Z,9.02
2022-12-31T02:02:27.588Z,7.25
2022-12-31T02:07:29.209Z,9.30
2022-12-31T02:12:30.975Z,10.35
2022-12-31T02:17:32.439Z,7.32
2022-12-31T02:22:49.037Z,12.52
2022-12-31T02:28:01.973Z,11.85
2022-12-31T02:33:20.116Z,9.07
2022-12-31T02:38:37.848Z,10.95
2022-12-31T02:43:46.960Z,12.55
2022-12-31T02:49:07.707Z,17.90
2022-12-31T02:54:16.746Z,14.40
2022-12-31T02:59:44.719Z,10.30
2022-12-31T03:04:51.275Z,15.32
2022-12-31T03:09:53.244Z,11.23
2022-12-31T03:14:54.758Z,15.32
2022-12-31T03:20:15.126Z,13.35
2022-12-31T03:25:37.901Z,12.55
2022-12-31T03:30:41.835Z,12.50
2022-12-31T03:35:45.476Z,15.65
2022-12-31T03:40:50.077Z,16.35
2022-12-31T03:45:53.435Z,12.23
2022-12-31T03:50:55.030Z,11.52
2022-12-31T03:55:56.582Z,13.38
2022-12-31T04:00:58.228Z,18.58
2022-12-31T04:05:59.803Z,18.27
2022-12-31T04:11:01.334Z,9.82
2022-12-31T04:16:02.884Z,17.35
2022-12-31T04:21:05.623Z,14.93
2022-12-31T04:26:07.099Z,15.50
2022-12-31T04:31:08.835Z,17.00
2022-12-31T04:36:10.534Z,15.70
2022-12-31T04:41:18.286Z,16.02
2022-12-31T04:46:25.475Z,15.50
2022-12-31T04:51:29.183Z,16.27
2022-12-31T04:56:31.169Z,16.45
2022-12-31T05:01:33.410Z,18.55
2022-12-31T05:06:35.105Z,15.20
2022-12-31T05:11:37.848Z,11.63
2022-12-31T05:16:39.381Z,14.27
2022-12-31T05:21:40.944Z,13.68
2022-12-31T05:26:42.412Z,12.05
2022-12-31T05:31:43.925Z,17.65
2022-12-31T05:36:45.441Z,18.23
2022-12-31T05:41:46.977Z,14.70
2022-12-31T05:46:48.496Z,16.88
2022-12-31T05:51:50.024Z,14.98
2022-12-31T05:56:51.593Z,11.10
2022-12-31T06:01:53.072Z,10.88
2022-12-31T06:06:54.674Z,12.02
2022-12-31T06:11:56.194Z,9.30
2022-12-31T06:16:57.759Z,11.75
2022-12-31T06:21:59.311Z,12.52
2022-12-31T06:27:00.836Z,8.40
2022-12-31T06:32:02.403Z,10.35
2022-12-31T06:37:03.892Z,7.60
2022-12-31T06:42:05.878Z,11.07
2022-12-31T06:47:07.376Z,10.93
2022-12-31T06:52:08.901Z,14.00
2022-12-31T06:57:10.660Z,10.55
2022-12-31T07:02:24.054Z,10.93
2022-12-31T07:07:37.398Z,6.00
2022-12-31T07:12:49.143Z,7.07
2022-12-31T07:18:07.479Z,8.88
2022-12-31T07:23:09.326Z,7.50
2022-12-31T07:28:34.316Z,8.23
2022-12-31T07:33:59.988Z,8.57
2022-12-31T07:39:14.803Z,11.15
2022-12-31T07:44:34.001Z,10.95
2022-12-31T07:49:42.974Z,14.13
2022-12-31T07:54:44.455Z,12.27
2022-12-31T07:59:58.548Z,13.73
2022-12-31T08:05:12.174Z,15.02
2022-12-31T08:10:23.599Z,15.38
2022-12-31T08:15:30.193Z,7.13
2022-12-31T08:20:33.897Z,7.55
2022-12-31T08:26:00.293Z,7.78
2022-12-31T08:31:12.604Z,9.35
2022-12-31T08:37:00.492Z,7.05
2022-12-31T08:42:09.456Z,8.77
2022-12-31T08:47:35.507Z,4.97
2022-12-31T08:52:40.014Z,5.43
2022-12-31T08:57:50.481Z,3.53
2022-12-31T09:03:01.144Z,4.47
2022-12-31T09:08:30.387Z,7.35
2022-12-31T09:13:57.847Z,10.05
2022-12-31T09:18:59.332Z,14.53
2022-12-31T09:24:07.454Z,11.30
2022-12-31T09:29:39.906Z,13.13
2022-12-31T09:34:58.538Z,14.35
2022-12-31T09:40:10.718Z,9.90
2022-12-31T09:45:24.181Z,12.77
2022-12-31T09:50:34.611Z,18.60
2022-12-31T09:56:12.620Z,21.63
2022-12-31T10:01:50.652Z,17.42
2022-12-31T10:07:17.425Z,17.17
2022-12-31T10:12:37.685Z,24.90
2022-12-31T10:35:04.064Z,17.40
2022-12-31T10:40:44.096Z,14.10
2022-12-31T10:46:10.907Z,9.88
2022-12-31T10:51:31.062Z,8.63
2022-12-31T10:56:53.921Z,9.93
2022-12-31T11:02:13.433Z,15.73
2022-12-31T11:07:33.492Z,12.60
2022-12-31T11:13:03.669Z,13.88
2022-12-31T11:18:33.802Z,21.92
2022-12-31T11:23:41.375Z,19.52
2022-12-31T11:34:38.455Z,20.05
2022-12-31T11:39:45.122Z,18.23
2022-12-31T11:44:59.211Z,22.50
2022-12-31T11:50:20.727Z,21.52
2022-12-31T11:55:53.315Z,20.33
2022-12-31T12:00:59.202Z,20.25
2022-12-31T12:06:00.745Z,15.43
2022-12-31T12:11:18.835Z,16.58
2022-12-31T12:16:23.108Z,16.30
2022-12-31T12:21:25.630Z,15.07
2022-12-31T12:26:35.149Z,16.02
2022-12-31T12:31:38.260Z,22.13
2022-12-31T12:36:46.992Z,15.63
2022-12-31T12:42:03.664Z,15.90
2022-12-31T12:47:13.816Z,13.02
2022-12-31T12:52:20.965Z,13.07
2022-12-31T12:57:56.645Z,10.48
2022-12-31T13:03:20.051Z,7.95
2022-12-31T13:08:40.254Z,10.55
2022-12-31T13:14:12.380Z,7.65
2022-12-31T13:19:23.601Z,7.10
2022-12-31T13:24:51.196Z,7.40
2022-12-31T13:29:55.085Z,9.27
2022-12-31T13:35:02.915Z,8.70
2022-12-31T13:40:21.147Z,9.75
2022-12-31T13:45:28.997Z,7.93
2022-12-31T13:51:03.733Z,7.75
2022-12-31T13:56:19.419Z,10.38
2022-12-31T14:01:34.512Z,5.05
2022-12-31T14:06:50.574Z,6.60
2022-12-31T14:12:32.008Z,6.57
2022-12-31T14:18:05.401Z,3.40
2022-12-31T14:23:24.077Z,8.55
2022-12-31T14:28:31.635Z,6.43
2022-12-31T14:39:29.110Z,5.70
2022-12-31T14:44:57.857Z,12.13
2022-12-31T14:50:05.322Z,16.45
2022-12-31T14:55:09.761Z,8.63
2022-12-31T15:00:26.638Z,14.30
2022-12-31T15:05:34.594Z,17.30
2022-12-31T15:11:03.903Z,18.80
2022-12-31T15:16:24.666Z,26.65
2022-12-31T15:21:47.323Z,20.63
2022-12-31T15:26:52.810Z,18.48
2022-12-31T15:31:56.156Z,20.25
2022-12-31T15:37:00.434Z,21.45
2022-12-31T15:47:29.492Z,21.15
2022-12-31T15:52:43.010Z,17.38
2022-12-31T15:57:44.580Z,22.98
2022-12-31T16:02:48.863Z,18.10
2022-12-31T16:07:55.594Z,14.20
2022-12-31T16:12:59.435Z,14.87
2022-12-31T16:18:09.765Z,16.50
2022-12-31T16:23:27.522Z,18.17
2022-12-31T16:33:32.436Z,24.45
2022-12-31T16:38:36.558Z,24.40
2022-12-31T16:43:41.771Z,29.52
2022-12-31T16:49:14.260Z,18.05
2022-12-31T16:54:20.707Z,27.20
2022-12-31T16:59:31.909Z,27.58
2022-12-31T17:04:38.742Z,22.02
2022-12-31T17:09:44.665Z,19.10
2022-12-31T17:14:51.217Z,25.95
2022-12-31T17:19:58.098Z,30.50
2022-12-31T17:30:34.701Z,81.32
2022-12-31T17:35:43.662Z,26.85
2022-12-31T17:40:51.651Z,22.52
2022-12-31T17:45:54.747Z,27.75
2022-12-31T17:51:00.864Z,58.72
2022-12-31T17:56:04.740Z,26.23
2022-12-31T18:01:07.957Z,20.15
2022-12-31T18:06:16.267Z,27.02
2022-12-31T18:11:21.397Z,21.10
2022-12-31T18:16:23.094Z,21.20
2022-12-31T18:21:29.897Z,20.77
2022-12-31T18:26:34.772Z,20.10
2022-12-31T18:31:36.927Z,26.48
2022-12-31T18:36:38.446Z,25.70
2022-12-31T18:41:49.601Z,23.10
2022-12-31T18:46:51.370Z,43.13
2022-12-31T18:51:54.256Z,20.95
2022-12-31T18:56:57.265Z,108.63
2022-12-31T19:01:59.009Z,109.63
2022-12-31T19:07:00.560Z,28.98
2022-12-31T19:12:02.093Z,47.35
2022-12-31T19:22:04.041Z,22.40
2022-12-31T19:27:05.631Z,19.35
2022-12-31T19:32:07.198Z,23.73
2022-12-31T19:37:14.702Z,15.10
2022-12-31T19:47:17.670Z,21.95
2022-12-31T19:52:22.037Z,22.77
2022-12-31T19:57:23.543Z,16.67
2022-12-31T20:02:25.163Z,24.75
2022-12-31T20:07:27.359Z,15.18
2022-12-31T20:12:29.364Z,18.83
2022-12-31T20:17:31.039Z,18.38
2022-12-31T20:22:32.966Z,12.18
2022-12-31T20:27:34.703Z,14.27
2022-12-31T20:32:36.610Z,16.85
2022-12-31T20:37:38.088Z,23.15
2022-12-31T20:42:52.070Z,22.58
2022-12-31T20:47:53.570Z,21.80
2022-12-31T20:52:55.122Z,17.25
2022-12-31T20:57:56.597Z,19.52
2022-12-31T21:03:10.482Z,20.15
2022-12-31T21:08:20.205Z,24.38
2022-12-31T21:13:23.061Z,22.00
2022-12-31T21:18:24.573Z,21.55
2022-12-31T21:23:26.064Z,23.75
2022-12-31T21:28:27.560Z,19.20
2022-12-31T21:33:29.187Z,42.60
2022-12-31T21:38:30.664Z,24.67
2022-12-31T21:43:32.196Z,25.30
2022-12-31T21:48:33.942Z,21.90
2022-12-31T21:53:37.080Z,21.35
2022-12-31T21:58:44.297Z,26.98
2022-12-31T22:03:45.965Z,24.00
2022-12-31T22:08:53.269Z,21.40
2022-12-31T22:13:56.552Z,30.83
2022-12-31T22:18:58.048Z,36.90
2022-12-31T22:23:59.641Z,24.20
2022-12-31T22:29:01.183Z,21.55
2022-12-31T22:34:02.789Z,24.80
2022-12-31T22:39:04.473Z,17.58
2022-12-31T22:44:06.003Z,26.20
2022-12-31T22:49:10.034Z,26.02
2022-12-31T22:54:11.704Z,25.10
2022-12-31T22:59:13.228Z,17.90
2022-12-31T23:04:15.088Z,51.95
2022-12-31T23:09:36.336Z,261.63
2022-12-31T23:14:56.462Z,108.60
2022-12-31T23:20:21.404Z,97.63
2022-12-31T23:25:22.981Z,120.45
2022-12-31T23:30:24.807Z,47.67
2022-12-31T23:35:26.348Z,56.88
2022-12-31T23:40:35.661Z,69.25
2022-12-31T23:45:37.154Z,63.80
2022-12-31T23:50:40.567Z,56.63
2022-12-31T23:55:42.175Z,64.78
